createdAt,value
2018-01-27T00:01:04.675Z,65.07
2018-01-27T00:03:40.844Z,65.10
2018-01-27T00:06:22.222Z,65.35
2018-01-27T00:08:54.922Z,65.12
2018-01-27T00:11:26.253Z,65.11
2018-01-27T00:14:04.413Z,65.26
2018-01-27T00:19:19.158Z,65.25
2018-01-27T00:21:48.971Z,65.16
2018-01-27T00:24:28.718Z,65.21
2018-01-27T00:27:17.660Z,65.30
2018-01-27T00:35:05.067Z,65.17
2018-01-27T00:37:40.118Z,65.24
2018-01-27T00:40:15.750Z,65.29
2018-01-27T00:43:05.396Z,65.37
2018-01-27T00:51:15.788Z,65.40
2018-01-27T00:53:52.395Z,65.36
2018-01-27T00:56:31.070Z,65.24
2018-01-27T01:05:21.817Z,65.39
2018-01-27T01:08:00.681Z,65.46
2018-01-27T01:10:29.987Z,65.40
2018-01-27T01:13:01.946Z,65.38
2018-01-27T01:15:36.872Z,65.53
2018-01-27T01:18:13.751Z,65.44
2018-01-27T01:20:48.376Z,65.31
2018-01-27T01:26:07.837Z,65.36
2018-01-27T01:28:36.346Z,65.54
2018-01-27T01:31:34.524Z,65.42
2018-01-27T01:34:08.029Z,65.45
2018-01-27T02:02:41.601Z,65.67
2018-01-27T02:08:24.631Z,65.74
2018-01-27T02:14:18.358Z,65.57
2018-01-27T02:19:45.061Z,65.76
2018-01-27T02:22:22.752Z,65.63
2018-01-27T02:27:50.003Z,65.60
2018-01-27T02:30:39.353Z,65.63
2018-01-27T02:33:19.423Z,65.70
2018-01-27T02:35:58.962Z,65.76
2018-01-27T02:50:47.498Z,65.80
2018-01-27T02:53:21.513Z,65.78
2018-01-27T03:01:22.406Z,65.65
2018-01-27T03:13:23.516Z,65.77
2018-01-27T03:19:33.290Z,65.81
2018-01-27T03:22:05.969Z,65.75
2018-01-27T03:24:45.104Z,65.75
2018-01-27T03:27:23.976Z,65.79
2018-01-27T03:30:02.539Z,65.75
2018-01-27T03:32:48.837Z,65.83
2018-01-27T03:35:54.029Z,65.70
2018-01-27T03:38:40.181Z,65.68
2018-01-27T03:41:21.196Z,65.65
2018-01-27T03:44:03.177Z,65.66
2018-01-27T03:46:36.422Z,65.71
2018-01-27T03:52:10.063Z,65.72
2018-01-27T03:54:43.020Z,65.67
2018-01-27T04:00:01.631Z,65.66
2018-01-27T04:02:38.343Z,65.64
2018-01-27T04:05:16.445Z,65.68
2018-01-27T04:07:47.842Z,65.69
2018-01-27T04:10:22.176Z,65.61
2018-01-27T04:12:58.904Z,65.68
2018-01-27T04:15:43.259Z,65.71
2018-01-27T04:21:04.388Z,65.62
2018-01-27T04:23:38.394Z,65.43
2018-01-27T04:26:25.105Z,65.74
2018-01-27T04:35:15.794Z,65.89
2018-01-27T04:37:53.562Z,65.63
2018-01-27T04:52:43.191Z,65.74
2018-01-27T04:58:47.825Z,65.67
2018-01-27T05:01:33.524Z,65.69
2018-01-27T05:04:20.219Z,65.74
2018-01-27T05:06:57.922Z,65.54
2018-01-27T05:09:40.767Z,65.54
2018-01-27T05:12:13.875Z,65.62
2018-01-27T05:14:53.629Z,65.54
2018-01-27T05:17:32.951Z,65.50
2018-01-27T05:20:08.766Z,65.36
2018-01-27T05:22:53.670Z,65.50
2018-01-27T05:25:33.893Z,65.47
2018-01-27T05:28:17.951Z,65.45
2018-01-27T05:30:46.499Z,65.54
2018-01-27T05:33:14.702Z,65.56
2018-01-27T05:35:42.453Z,65.66
2018-01-27T05:38:10.540Z,65.43
2018-01-27T05:40:38.307Z,65.38
2018-01-27T05:43:06.096Z,65.46
2018-01-27T05:45:33.746Z,65.46
2018-01-27T05:48:02.496Z,65.35
2018-01-27T05:50:30.153Z,65.42
2018-01-27T05:52:59.044Z,65.33
2018-01-27T05:55:26.855Z,65.40
2018-01-27T05:57:55.757Z,65.17
2018-01-27T06:00:23.426Z,65.08
2018-01-27T06:02:51.178Z,64.95
2018-01-27T06:05:19.366Z,64.80
2018-01-27T06:07:47.849Z,64.68
2018-01-27T06:10:15.748Z,64.36
2018-01-27T06:12:47.354Z,64.12
2018-01-27T06:15:16.805Z,63.66
2018-01-27T06:17:45.245Z,63.47
2018-01-27T06:20:13.453Z,63.51
2018-01-27T06:22:42.517Z,62.98
2018-01-27T06:25:11.071Z,62.95
2018-01-27T06:27:39.004Z,62.06
2018-01-27T06:30:08.492Z,62.18
2018-01-27T06:32:38.176Z,61.57
2018-01-27T06:35:07.289Z,60.90
2018-01-27T06:37:35.159Z,60.38
2018-01-27T06:40:03.721Z,60.02
2018-01-27T06:42:33.404Z,59.42
2018-01-27T06:45:05.804Z,59.36
2018-01-27T06:47:34.597Z,59.32
2018-01-27T06:50:03.016Z,58.75
2018-01-27T06:52:31.713Z,57.92
2018-01-27T06:54:59.465Z,56.80
2018-01-27T06:57:27.001Z,56.27
2018-01-27T06:59:54.716Z,55.50
2018-01-27T07:02:22.646Z,56.23
2018-01-27T07:04:50.181Z,54.42
2018-01-27T07:07:18.076Z,53.04
2018-01-27T07:09:45.636Z,53.41
2018-01-27T07:12:13.428Z,52.94
2018-01-27T07:14:40.958Z,50.41
2018-01-27T07:17:08.718Z,50.80
2018-01-27T07:19:36.364Z,48.93
2018-01-27T07:22:04.307Z,46.34
2018-01-27T07:24:31.824Z,44.86
2018-01-27T07:26:59.370Z,44.17
2018-01-27T07:29:26.959Z,43.63
2018-01-27T07:31:55.434Z,43.46
2018-01-27T07:34:26.884Z,46.64
2018-01-27T07:36:55.524Z,43.85
2018-01-27T07:39:24.862Z,34.01
2018-01-27T07:41:52.573Z,31.28
2018-01-27T07:44:21.096Z,50.17
2018-01-27T07:46:50.076Z,34.64
2018-01-27T07:49:21.565Z,32.63
2018-01-27T07:51:49.196Z,30.60
2018-01-27T07:54:16.844Z,31.03
2018-01-27T07:56:44.621Z,30.41
2018-01-27T07:59:12.368Z,29.98
2018-01-27T08:01:39.909Z,30.72
2018-01-27T08:04:07.692Z,30.68
2018-01-27T08:06:35.368Z,30.44
2018-01-27T08:09:02.945Z,30.77
2018-01-27T08:11:30.673Z,29.92
2018-01-27T08:13:58.189Z,30.39
2018-01-27T08:16:25.733Z,30.29
2018-01-27T08:18:53.426Z,30.11
2018-01-27T08:21:21.071Z,29.34
2018-01-27T08:23:49.374Z,29.82
2018-01-27T08:26:16.926Z,29.70
2018-01-27T08:28:44.481Z,29.34
2018-01-27T08:31:12.016Z,29.50
2018-01-27T08:33:39.596Z,28.77
2018-01-27T08:36:07.293Z,28.53
2018-01-27T08:38:34.826Z,28.45
2018-01-27T08:41:02.451Z,28.07
2018-01-27T08:43:30.031Z,27.61
2018-01-27T08:45:57.849Z,27.66
2018-01-27T08:48:26.345Z,27.20
2018-01-27T08:50:53.908Z,27.52
2018-01-27T08:53:21.591Z,27.36
2018-01-27T08:55:49.160Z,26.95
2018-01-27T08:58:16.707Z,27.07
2018-01-27T09:00:45.112Z,26.53
2018-01-27T09:03:13.583Z,26.67
2018-01-27T09:05:41.159Z,25.83
2018-01-27T09:08:08.809Z,26.15
2018-01-27T09:10:36.718Z,25.94
2018-01-27T09:13:04.385Z,25.63
2018-01-27T09:15:32.231Z,25.63
2018-01-27T09:18:00.192Z,25.20
2018-01-27T09:20:28.340Z,25.39
2018-01-27T09:22:55.876Z,25.41
2018-01-27T09:25:23.642Z,25.22
2018-01-27T09:27:51.730Z,25.11
2018-01-27T09:30:19.437Z,25.23
2018-01-27T09:32:47.026Z,24.73
2018-01-27T09:35:14.619Z,24.95
2018-01-27T09:37:44.923Z,25.05
2018-01-27T09:40:12.560Z,24.58
2018-01-27T09:42:40.364Z,24.55
2018-01-27T09:45:08.004Z,24.47
2018-01-27T09:47:35.604Z,24.55
2018-01-27T09:50:03.234Z,24.65
2018-01-27T09:52:30.761Z,24.26
2018-01-27T09:54:58.460Z,24.33
2018-01-27T09:57:26.119Z,24.23
2018-01-27T09:59:53.697Z,23.90
2018-01-27T10:02:21.341Z,24.14
2018-01-27T10:04:48.927Z,23.83
2018-01-27T10:07:16.608Z,24.01
2018-01-27T10:09:45.161Z,24.29
2018-01-27T10:12:12.769Z,24.31
2018-01-27T10:14:40.371Z,24.56
2018-01-27T10:17:07.942Z,24.22
2018-01-27T10:19:35.639Z,24.19
2018-01-27T10:22:03.196Z,24.02
2018-01-27T10:24:30.736Z,24.25
2018-01-27T10:26:58.261Z,23.97
2018-01-27T10:29:25.916Z,23.67
2018-01-27T10:31:53.456Z,23.77
2018-01-27T10:34:21.041Z,23.87
2018-01-27T10:36:48.718Z,23.76
2018-01-27T10:39:16.235Z,23.30
2018-01-27T10:41:43.784Z,23.66
2018-01-27T10:44:11.336Z,23.73
2018-01-27T10:46:39.219Z,23.40
2018-01-27T10:49:06.923Z,23.91
2018-01-27T10:51:34.479Z,23.67
2018-01-27T10:54:02.074Z,23.30
2018-01-27T10:56:29.976Z,23.42
2018-01-27T10:58:57.533Z,23.82
2018-01-27T11:01:25.087Z,23.80
2018-01-27T11:03:52.610Z,23.72
2018-01-27T11:06:20.329Z,23.60
2018-01-27T11:08:47.860Z,23.84
2018-01-27T11:11:15.393Z,23.73
2018-01-27T11:13:42.940Z,23.57
2018-01-27T11:16:10.797Z,23.74
2018-01-27T11:18:38.465Z,23.90
2018-01-27T11:21:05.985Z,23.92
2018-01-27T11:23:33.505Z,23.88
2018-01-27T11:26:01.032Z,24.17
2018-01-27T11:28:28.562Z,24.27
2018-01-27T11:30:56.246Z,24.41
2018-01-27T11:33:23.780Z,24.35
2018-01-27T11:35:51.318Z,24.31
2018-01-27T11:38:18.860Z,24.11
2018-01-27T11:40:46.376Z,24.00
2018-01-27T11:43:15.012Z,24.25
2018-01-27T11:45:43.071Z,24.39
2018-01-27T11:48:10.735Z,24.24
2018-01-27T11:50:38.318Z,23.97
2018-01-27T11:53:06.007Z,24.11
2018-01-27T11:55:33.720Z,24.05
2018-01-27T11:58:01.613Z,24.41
2018-01-27T12:00:29.312Z,24.47
2018-01-27T12:02:56.897Z,24.63
2018-01-27T12:05:24.457Z,24.60
2018-01-27T12:07:52.004Z,24.84
2018-01-27T12:10:19.553Z,24.58
2018-01-27T12:12:47.232Z,24.71
2018-01-27T12:15:15.024Z,24.60
2018-01-27T12:17:42.556Z,24.91
2018-01-27T12:20:10.118Z,24.98
2018-01-27T12:22:37.649Z,24.77
2018-01-27T12:25:05.335Z,25.19
2018-01-27T12:27:32.877Z,24.87
2018-01-27T12:30:00.432Z,25.31
2018-01-27T12:32:27.988Z,25.35
2018-01-27T12:34:55.583Z,29.45
2018-01-27T12:37:23.245Z,28.57
2018-01-27T12:39:51.038Z,27.18
2018-01-27T12:42:18.576Z,26.94
2018-01-27T12:44:46.214Z,26.97
2018-01-27T12:47:13.781Z,27.04
2018-01-27T12:49:41.472Z,26.68
2018-01-27T12:52:09.191Z,26.88
2018-01-27T12:54:36.749Z,27.26
2018-01-27T12:57:05.500Z,27.08
2018-01-27T12:59:33.026Z,27.06
2018-01-27T13:02:00.584Z,27.08
2018-01-27T13:04:29.048Z,26.88
2018-01-27T13:06:56.713Z,27.06
2018-01-27T13:09:24.282Z,27.52
2018-01-27T13:11:52.222Z,27.34
2018-01-27T13:14:19.741Z,27.62
2018-01-27T13:16:47.252Z,28.09
2018-01-27T13:19:14.917Z,28.59
2018-01-27T13:21:42.445Z,28.54
2018-01-27T13:24:09.963Z,28.61
2018-01-27T13:26:37.493Z,29.09
2018-01-27T13:29:06.018Z,29.63
2018-01-27T13:31:33.575Z,28.76
2018-01-27T13:34:01.110Z,28.29
2018-01-27T13:36:28.817Z,28.64
2018-01-27T13:38:56.380Z,28.59
2018-01-27T13:41:24.604Z,28.66
2018-01-27T13:43:52.137Z,29.38
2018-01-27T13:46:19.675Z,29.86
2018-01-27T13:48:47.336Z,30.14
2018-01-27T13:51:14.891Z,30.47
2018-01-27T13:53:42.410Z,30.44
2018-01-27T13:56:10.165Z,31.38
2018-01-27T13:58:37.706Z,31.44
2018-01-27T14:01:05.371Z,32.58
2018-01-27T14:03:32.921Z,32.84
2018-01-27T14:06:00.465Z,33.26
2018-01-27T14:08:28.232Z,33.53
2018-01-27T14:10:56.088Z,32.40
2018-01-27T14:13:23.780Z,63.83
2018-01-27T14:15:51.296Z,62.25
2018-01-27T14:18:18.846Z,60.22
2018-01-27T14:20:46.478Z,58.33
2018-01-27T14:23:14.014Z,56.45
2018-01-27T14:25:41.670Z,56.26
2018-01-27T14:28:09.208Z,55.71
2018-01-27T14:30:36.995Z,55.38
2018-01-27T14:33:04.535Z,55.20
2018-01-27T14:35:32.098Z,55.11
2018-01-27T14:37:59.637Z,55.04
2018-01-27T14:40:27.163Z,55.00
2018-01-27T14:42:54.839Z,55.19
2018-01-27T14:45:22.384Z,55.38
2018-01-27T14:47:49.909Z,55.45
2018-01-27T14:50:17.442Z,68.04
2018-01-27T14:52:45.090Z,64.62
2018-01-27T14:55:12.782Z,63.53
2018-01-27T14:57:40.327Z,63.50
2018-01-27T18:30:51.280Z,53.59
2018-01-27T18:33:18.917Z,55.17
2018-01-27T18:35:46.963Z,56.37
2018-01-27T18:38:14.651Z,59.82
2018-01-27T18:40:43.474Z,59.78
2018-01-27T18:43:11.009Z,59.87
2018-01-27T18:45:38.592Z,62.76
2018-01-27T18:48:06.999Z,61.16
2018-01-27T18:50:34.900Z,63.68
2018-01-27T18:53:03.484Z,64.83
2018-01-27T18:55:31.118Z,64.68
2018-01-27T18:57:58.700Z,65.94
2018-01-27T19:00:26.383Z,67.01
2018-01-27T19:02:54.025Z,66.65
2018-01-27T19:05:22.512Z,66.33
2018-01-27T19:07:50.318Z,65.22
2018-01-27T19:10:17.914Z,68.05
2018-01-27T19:12:46.192Z,67.50
2018-01-27T19:15:14.021Z,66.53
2018-01-27T19:17:41.994Z,67.38
2018-01-27T19:20:09.678Z,67.78
2018-01-27T19:22:37.496Z,66.87
2018-01-27T19:25:08.337Z,67.11
2018-01-27T19:27:36.114Z,66.50
2018-01-27T19:30:07.506Z,68.11
2018-01-27T19:32:35.373Z,69.42
2018-01-27T19:35:03.303Z,67.73
2018-01-27T19:37:31.074Z,69.65
2018-01-27T19:39:58.592Z,67.72
2018-01-27T19:42:27.314Z,68.54
2018-01-27T19:44:55.098Z,68.30
2018-01-27T19:47:22.886Z,67.56
2018-01-27T19:49:50.412Z,67.68
2018-01-27T19:52:18.512Z,69.12
2018-01-27T19:54:46.968Z,66.26
2018-01-27T19:57:14.589Z,68.95
2018-01-27T19:59:42.390Z,69.71
2018-01-27T20:02:09.952Z,69.61
2018-01-27T20:04:37.582Z,69.02
2018-01-27T20:07:06.239Z,67.48
2018-01-27T20:09:33.878Z,67.29
2018-01-27T20:12:01.426Z,67.04
2018-01-27T20:14:29.010Z,67.80
2018-01-27T20:16:56.605Z,67.64
2018-01-27T20:19:24.274Z,71.86
2018-01-27T20:21:52.105Z,68.88
2018-01-27T20:24:19.686Z,70.30
2018-01-27T20:26:47.537Z,69.21
2018-01-27T20:29:15.353Z,68.88
2018-01-27T20:31:43.118Z,68.61
2018-01-27T20:34:11.504Z,67.35
2018-01-27T20:36:39.192Z,68.18
2018-01-27T20:39:06.824Z,68.80
2018-01-27T20:41:34.435Z,67.86
2018-01-27T20:44:02.057Z,67.65
2018-01-27T20:46:29.623Z,67.57
2018-01-27T20:48:57.335Z,73.38
2018-01-27T20:51:25.729Z,68.76
2018-01-27T20:53:53.540Z,67.34
2018-01-27T20:56:21.358Z,67.40
2018-01-27T20:58:49.073Z,68.24
2018-01-27T21:01:16.899Z,68.16
2018-01-27T21:03:44.661Z,67.65
2018-01-27T21:06:12.349Z,67.72
2018-01-27T21:08:39.880Z,66.32
2018-01-27T21:11:07.452Z,67.61
2018-01-27T21:13:35.152Z,67.84
2018-01-27T21:16:02.776Z,67.80
2018-01-27T21:18:30.681Z,67.60
2018-01-27T21:20:58.365Z,66.97
2018-01-27T21:23:26.901Z,67.77
2018-01-27T21:25:55.884Z,68.66
2018-01-27T21:30:07.642Z,65.80
2018-01-27T21:32:36.834Z,68.20
2018-01-27T21:35:04.645Z,67.66
2018-01-27T21:37:32.440Z,67.49
2018-01-27T21:40:02.728Z,68.32
2018-01-27T21:42:30.404Z,67.52
2018-01-27T21:44:59.729Z,67.01
2018-01-27T21:47:28.448Z,67.22
2018-01-27T21:49:56.005Z,66.49
2018-01-27T21:52:24.152Z,66.30
2018-01-27T21:54:52.329Z,66.98
2018-01-27T21:57:21.137Z,66.67
2018-01-27T21:59:48.678Z,66.38
2018-01-27T22:02:16.459Z,66.12
2018-01-27T22:04:44.113Z,68.01
2018-01-27T22:07:11.874Z,66.41
2018-01-27T22:09:39.706Z,67.58
2018-01-27T22:12:07.545Z,66.76
2018-01-27T22:14:35.118Z,66.11
2018-01-27T22:17:03.036Z,67.58
2018-01-27T22:19:30.736Z,64.84
2018-01-27T22:21:58.325Z,66.76
2018-01-27T22:24:25.912Z,66.70
2018-01-27T22:26:53.485Z,65.57
2018-01-27T22:29:21.936Z,65.02
2018-01-27T22:31:49.510Z,65.84
2018-01-27T22:34:17.108Z,66.41
2018-01-27T22:36:44.794Z,65.66
2018-01-27T22:39:12.573Z,66.39
2018-01-27T22:41:40.382Z,64.31
2018-01-27T22:44:08.158Z,64.54
2018-01-27T22:46:36.761Z,63.19
2018-01-27T22:49:04.425Z,64.53
2018-01-27T22:51:32.085Z,63.06
2018-01-27T22:54:00.909Z,64.64
2018-01-27T22:56:29.432Z,64.16
2018-01-27T22:58:58.619Z,64.60
2018-01-27T23:04:03.394Z,64.20
2018-01-27T23:09:27.808Z,64.96
2018-01-27T23:11:56.725Z,64.67
2018-01-27T23:14:29.589Z,64.21
2018-01-27T23:17:04.660Z,63.33
2018-01-27T23:19:37.217Z,63.72
2018-01-27T23:22:15.390Z,65.08
2018-01-27T23:24:48.443Z,63.92
2018-01-27T23:27:30.383Z,64.81
2018-01-27T23:30:09.810Z,64.91
2018-01-27T23:32:39.195Z,64.88
2018-01-27T23:35:07.116Z,62.83
2018-01-27T23:37:52.471Z,63.58
2018-01-27T23:40:20.486Z,64.57
2018-01-27T23:42:48.119Z,64.56
2018-01-27T23:45:17.145Z,64.32
2018-01-27T23:47:51.087Z,64.07
2018-01-27T23:50:19.541Z,64.51
2018-01-27T23:52:48.925Z,64.20
2018-01-27T23:55:37.869Z,64.37
2018-01-27T23:58:15.136Z,64.14
